Terminal Aerodrome Forecast
Issued by NWS Denver/Boulder, CO

Home | Current Version | Previous Version | Text Only | Print | Product List | Glossary On
Versions: 1 2 3 4 5 6 7 8 9 10 11 12 13 14 15 16 17 18 19 20 21 22 23 24 25 26 27 28 29 30 31 32 33 34 35 36
000
FTUS45 KBOU 210102 AAA
TAFDEN
TAF AMD
KDEN 210102Z 2101/2206 02006KT P6SM BKN150 BKN250
     FM210230 27011KT P6SM SCT150 BKN250
     FM210400 21010KT P6SM FEW150 BKN220
     FM211400 25007KT P6SM FEW140 BKN220
     FM211700 02011KT P6SM FEW100 BKN220=

USA.gov is the U.S. government's official web portal to all federal, state and local government web resources and services.